Time,TemperatureF,DewpointF,PressureIn,WindDirection,WindDirectionDegrees,WindSpeedMPH,WindSpeedGustMPH,Humidity,HourlyPrecipIn,Conditions,Clouds,dailyrainin,SolarRadiationWatts/m^2,SoftwareType,DateUTC
2013-02-23 00:00:00,22.1,19.1,30.08,WSW,255,1.0,11.0,88,0.00,,BKN027,0.16,0.00,VWS V14.01,2013-02-23 06:00:00,
2013-02-23 00:05:00,22.1,19.1,30.09,West,281,5.0,11.0,88,0.00,,BKN027,0.00,0.00,VWS V14.01,2013-02-23 06:05:00,
2013-02-23 00:10:00,22.1,19.1,30.08,WSW,253,3.0,11.0,88,0.00,,BKN027,0.00,0.00,VWS V14.01,2013-02-23 06:10:00,
2013-02-23 00:15:00,22.1,19.1,30.08,WSW,250,5.0,10.0,88,0.00,,BKN027,0.00,0.00,VWS V14.01,2013-02-23 06:15:00,
2013-02-23 00:21:00,22.1,19.1,30.08,West,261,9.0,13.0,88,0.00,,BKN027,0.00,0.00,VWS V14.01,2013-02-23 06:21:00,
2013-02-23 00:26:00,22.1,19.1,30.08,WSW,257,0.0,2.0,88,0.00,,BKN027,0.00,0.00,VWS V14.01,2013-02-23 06:26:00,
2013-02-23 00:31:00,22.1,19.1,30.08,WSW,257,5.0,9.0,88,0.00,,BKN027,0.00,0.00,VWS V14.01,2013-02-23 06:31:00,
2013-02-23 00:36:00,22.1,19.1,30.08,West,267,5.0,5.0,88,0.00,,BKN027,0.00,0.00,VWS V14.01,2013-02-23 06:36:00,
2013-02-23 00:41:00,22.1,19.1,30.08,West,269,0.0,0.0,88,0.00,,BKN027,0.00,0.00,VWS V14.01,2013-02-23 06:41:00,
2013-02-23 00:46:00,22.1,19.1,30.08,West,261,11.0,11.0,88,0.00,,BKN027,0.00,0.00,VWS V14.01,2013-02-23 06:46:00,
2013-02-23 00:51:00,22.0,19.0,30.08,WSW,256,0.0,5.0,88,0.00,,BKN025,0.00,0.00,VWS V14.01,2013-02-23 06:51:00,
2013-02-23 00:56:00,22.0,19.0,30.08,West,264,0.0,7.0,88,0.00,,BKN025,0.00,0.00,VWS V14.01,2013-02-23 06:56:00,
2013-02-23 01:01:00,22.0,19.0,30.08,West,264,5.0,9.0,88,0.00,,BKN025,0.00,0.00,VWS V14.01,2013-02-23 07:01:00,
2013-02-23 01:06:00,22.0,19.0,30.08,West,272,0.0,10.0,88,0.00,,BKN025,0.00,0.00,VWS V14.01,2013-02-23 07:06:00,
2013-02-23 01:11:00,21.9,18.9,30.08,West,266,2.0,12.0,88,0.00,,BKN025,0.00,0.00,VWS V14.01,2013-02-23 07:11:00,
2013-02-23 01:16:00,21.8,18.8,30.08,West,261,3.0,9.0,88,0.00,,BKN025,0.00,0.00,VWS V14.01,2013-02-23 07:16:00,
2013-02-23 01:21:00,21.8,18.8,30.08,WSW,245,4.0,12.0,88,0.00,,BKN025,0.00,0.00,VWS V14.01,2013-02-23 07:21:00,
2013-02-23 01:26:00,21.8,18.8,30.08,WNW,282,3.0,9.0,88,0.00,,BKN025,0.00,0.00,VWS V14.01,2013-02-23 07:26:00,
2013-02-23 01:31:00,21.8,18.8,30.08,West,280,3.0,10.0,88,0.00,,BKN025,0.00,0.00,VWS V14.01,2013-02-23 07:31:00,
2013-02-23 01:36:00,21.8,18.8,30.08,WNW,297,0.0,11.0,88,0.00,,BKN025,0.00,0.00,VWS V14.01,2013-02-23 07:36:00,
2013-02-23 01:41:00,21.7,18.7,30.08,West,279,3.0,11.0,88,0.00,,BKN025,0.00,0.00,VWS V14.01,2013-02-23 07:41:00,
2013-02-23 01:46:00,21.7,18.7,30.08,WNW,289,0.0,12.0,88,0.00,,BKN025,0.00,0.00,VWS V14.01,2013-02-23 07:46:00,
2013-02-23 01:51:00,21.6,18.6,30.08,WNW,294,4.0,15.0,88,0.00,,OVC021,0.00,0.00,VWS V14.01,2013-02-23 07:51:00,
2013-02-23 01:56:00,21.5,18.5,30.09,WNW,298,13.0,13.0,88,0.00,,OVC021,0.00,0.00,VWS V14.01,2013-02-23 07:56:00,
2013-02-23 02:01:00,21.4,18.4,30.09,West,266,3.0,6.0,88,0.00,,OVC021,0.00,0.00,VWS V14.01,2013-02-23 08:01:00,
2013-02-23 02:06:00,21.4,18.4,30.08,WSW,253,0.0,16.0,88,0.00,,OVC021,0.00,0.00,VWS V14.01,2013-02-23 08:06:00,
2013-02-23 02:11:00,21.3,18.3,30.09,WNW,294,5.0,9.0,88,0.00,,OVC021,0.00,0.00,VWS V14.01,2013-02-23 08:11:00,
2013-02-23 02:16:00,21.2,18.2,30.08,West,264,6.0,10.0,88,0.00,,OVC021,0.00,0.00,VWS V14.01,2013-02-23 08:16:00,
2013-02-23 02:21:00,21.2,18.2,30.08,WNW,286,0.0,0.0,88,0.00,,OVC021,0.00,0.00,VWS V14.01,2013-02-23 08:21:00,
2013-02-23 02:26:00,21.1,18.1,30.08,West,270,6.0,7.0,88,0.00,,OVC021,0.00,0.00,VWS V14.01,2013-02-23 08:26:00,
2013-02-23 02:31:00,21.1,18.1,30.08,West,274,0.0,3.0,88,0.00,,OVC021,0.00,0.00,VWS V14.01,2013-02-23 08:31:00,
2013-02-23 02:36:00,21.1,18.1,30.08,WNW,291,3.0,6.0,88,0.00,,OVC021,0.00,0.00,VWS V14.01,2013-02-23 08:36:00,
2013-02-23 02:41:00,21.1,18.1,30.08,West,272,0.0,9.0,88,0.00,,OVC021,0.00,0.00,VWS V14.01,2013-02-23 08:41:00,
2013-02-23 02:46:00,21.1,18.1,30.08,West,266,0.0,0.0,88,0.00,,OVC021,0.00,0.00,VWS V14.01,2013-02-23 08:46:00,
2013-02-23 02:51:00,21.0,18.0,30.08,West,265,5.0,8.0,88,0.00,,OVC021,0.00,0.00,VWS V14.01,2013-02-23 08:51:00,
2013-02-23 02:57:00,21.0,18.0,30.08,West,271,0.0,8.0,88,0.00,,OVC021,0.00,0.00,VWS V14.01,2013-02-23 08:57:00,
2013-02-23 03:02:00,21.0,18.0,30.08,West,262,0.0,7.0,88,0.00,,OVC021,0.00,0.00,VWS V14.01,2013-02-23 09:02:00,
2013-02-23 03:07:00,21.0,18.0,30.08,West,268,4.0,10.0,88,0.00,,OVC021,0.00,0.00,VWS V14.01,2013-02-23 09:07:00,
2013-02-23 03:12:00,21.0,18.0,30.07,West,274,4.0,11.0,88,0.00,,OVC021,0.00,0.00,VWS V14.01,2013-02-23 09:12:00,
2013-02-23 03:17:00,20.9,17.9,30.07,West,275,5.0,8.0,88,0.00,,OVC021,0.00,0.00,VWS V14.01,2013-02-23 09:17:00,
2013-02-23 03:22:00,20.9,17.9,30.08,West,261,3.0,7.0,88,0.00,,OVC021,0.00,0.00,VWS V14.01,2013-02-23 09:22:00,
2013-02-23 03:27:00,20.9,17.9,30.07,WSW,253,4.0,12.0,88,0.00,,OVC021,0.00,0.00,VWS V14.01,2013-02-23 09:27:00,
2013-02-23 03:32:00,20.9,17.9,30.07,WSW,237,4.0,10.0,88,0.00,,OVC021,0.00,0.00,VWS V14.01,2013-02-23 09:32:00,
2013-02-23 03:37:00,20.8,17.8,30.07,WSW,254,0.0,0.0,88,0.00,,OVC021,0.00,0.00,VWS V14.01,2013-02-23 09:37:00,
2013-02-23 03:42:00,20.8,17.8,30.07,WSW,252,8.0,8.0,88,0.00,,OVC021,0.00,0.00,VWS V14.01,2013-02-23 09:42:00,
2013-02-23 03:47:00,20.8,17.8,30.07,WSW,245,4.0,12.0,88,0.00,,OVC021,0.00,0.00,VWS V14.01,2013-02-23 09:47:00,
2013-02-23 03:52:00,20.7,17.7,30.07,WSW,249,0.0,3.0,88,0.00,,OVC019,0.00,0.00,VWS V14.01,2013-02-23 09:52:00,
2013-02-23 03:57:00,20.7,17.7,30.07,WSW,257,3.0,10.0,88,0.00,,OVC019,0.00,0.00,VWS V14.01,2013-02-23 09:57:00,
2013-02-23 04:02:00,20.7,17.7,30.07,WSW,255,3.0,11.0,88,0.00,,OVC019,0.00,0.00,VWS V14.01,2013-02-23 10:02:00,
2013-02-23 04:07:00,20.7,17.7,30.07,WSW,249,9.0,11.0,88,0.00,,OVC019,0.00,0.00,VWS V14.01,2013-02-23 10:07:00,
2013-02-23 04:12:00,20.7,17.7,30.07,WSW,252,5.0,10.0,88,0.00,,OVC019,0.00,0.00,VWS V14.01,2013-02-23 10:12:00,
2013-02-23 04:17:00,20.7,17.7,30.07,WSW,253,0.0,11.0,88,0.00,,OVC019,0.00,0.00,VWS V14.01,2013-02-23 10:17:00,
2013-02-23 04:22:00,20.7,17.7,30.07,WSW,252,0.0,6.0,88,0.00,,OVC019,0.00,0.00,VWS V14.01,2013-02-23 10:22:00,
2013-02-23 04:27:00,20.6,17.6,30.07,WSW,249,0.0,0.0,88,0.00,,OVC019,0.00,0.00,VWS V14.01,2013-02-23 10:27:00,
2013-02-23 04:32:00,20.5,17.5,30.07,WSW,249,0.0,0.0,88,0.00,,OVC019,0.00,0.00,VWS V14.01,2013-02-23 10:32:00,
2013-02-23 04:37:00,20.4,17.2,30.08,WSW,251,0.0,7.0,87,0.00,,OVC019,0.00,0.00,VWS V14.01,2013-02-23 10:37:00,
2013-02-23 04:42:00,20.3,17.3,30.08,WSW,258,0.0,0.0,88,0.00,,OVC019,0.00,0.00,VWS V14.01,2013-02-23 10:42:00,
2013-02-23 04:47:00,20.2,17.2,30.08,WSW,257,5.0,5.0,88,0.00,,OVC019,0.00,0.00,VWS V14.01,2013-02-23 10:47:00,
2013-02-23 04:52:00,20.1,17.1,30.08,WSW,255,0.0,4.0,88,0.00,,OVC019,0.00,0.00,VWS V14.01,2013-02-23 10:52:00,
2013-02-23 04:57:00,20.1,17.1,30.08,WSW,257,0.0,0.0,88,0.00,,OVC019,0.00,0.00,VWS V14.01,2013-02-23 10:57:00,
2013-02-23 05:02:00,20.0,17.0,30.08,WSW,254,0.0,0.0,88,0.00,,OVC019,0.00,0.00,VWS V14.01,2013-02-23 11:02:00,
2013-02-23 05:07:00,19.9,16.9,30.08,West,263,0.0,0.0,88,0.00,,OVC019,0.00,0.00,VWS V14.01,2013-02-23 11:07:00,
2013-02-23 05:12:00,19.8,16.8,30.08,WSW,254,0.0,0.0,88,0.00,,OVC019,0.00,0.00,VWS V14.01,2013-02-23 11:12:00,
2013-02-23 05:17:00,19.7,16.7,30.08,West,259,0.0,0.0,88,0.00,,OVC019,0.00,0.00,VWS V14.01,2013-02-23 11:17:00,
2013-02-23 05:22:00,19.7,16.7,30.08,WSW,255,0.0,0.0,88,0.00,,OVC019,0.00,0.00,VWS V14.01,2013-02-23 11:22:00,
2013-02-23 05:27:00,19.5,16.5,30.08,West,262,0.0,0.0,88,0.00,,OVC019,0.00,0.00,VWS V14.01,2013-02-23 11:27:00,
2013-02-23 05:32:00,19.2,16.2,30.08,West,262,0.0,0.0,88,0.00,,OVC019,0.00,0.00,VWS V14.01,2013-02-23 11:32:00,
2013-02-23 05:37:00,18.9,15.9,30.08,West,263,0.0,0.0,88,0.00,,OVC019,0.00,0.00,VWS V14.01,2013-02-23 11:37:00,
2013-02-23 05:42:00,18.7,15.7,30.08,West,264,0.0,0.0,88,0.00,,OVC019,0.00,0.00,VWS V14.01,2013-02-23 11:42:00,
2013-02-23 05:47:00,18.6,15.6,30.08,West,260,0.0,0.0,88,0.00,,OVC019,0.00,0.00,VWS V14.01,2013-02-23 11:47:00,
2013-02-23 05:52:00,18.4,15.4,30.08,West,260,0.0,0.0,88,0.00,,BKN015,0.00,0.00,VWS V14.01,2013-02-23 11:52:00,
2013-02-23 05:57:00,18.3,15.4,30.08,West,259,0.0,0.0,88,0.00,,BKN015,0.00,0.00,VWS V14.01,2013-02-23 11:57:00,
2013-02-23 06:02:00,18.1,15.1,30.08,West,259,0.0,0.0,88,0.00,,BKN015,0.00,0.00,VWS V14.01,2013-02-23 12:02:00,
2013-02-23 06:07:00,17.9,14.9,30.08,West,261,0.0,0.0,88,0.00,,BKN015,0.00,0.00,VWS V14.01,2013-02-23 12:07:00,
2013-02-23 06:12:00,17.8,14.9,30.08,West,261,0.0,0.0,88,0.00,,BKN015,0.00,0.00,VWS V14.01,2013-02-23 12:12:00,
2013-02-23 06:17:00,17.6,14.7,30.08,West,261,0.0,0.0,88,0.00,,BKN015,0.00,0.00,VWS V14.01,2013-02-23 12:17:00,
2013-02-23 06:22:00,17.4,14.5,30.08,West,261,0.0,0.0,88,0.00,,BKN015,0.00,0.00,VWS V14.01,2013-02-23 12:22:00,
2013-02-23 06:27:00,17.2,14.3,30.08,West,262,0.0,0.0,88,0.00,,BKN015,0.00,0.00,VWS V14.01,2013-02-23 12:27:00,
2013-02-23 06:32:00,17.0,14.1,30.08,West,261,0.0,0.0,88,0.00,,BKN015,0.00,0.00,VWS V14.01,2013-02-23 12:32:00,
2013-02-23 06:37:00,16.8,13.9,30.08,West,260,0.0,0.0,88,0.00,,BKN015,0.00,0.00,VWS V14.01,2013-02-23 12:37:00,
2013-02-23 06:42:00,16.6,13.7,30.09,West,259,0.0,0.0,88,0.00,,BKN015,0.00,0.00,VWS V14.01,2013-02-23 12:42:00,
2013-02-23 06:47:00,16.4,13.5,30.09,West,259,0.0,0.0,88,0.00,,BKN015,0.00,0.00,VWS V14.01,2013-02-23 12:47:00,
2013-02-23 06:52:00,16.3,13.4,30.09,West,259,0.0,0.0,88,0.00,,BKN015,0.00,0.00,VWS V14.01,2013-02-23 12:52:00,
2013-02-23 06:57:00,16.1,13.2,30.09,West,261,0.0,0.0,88,0.00,,BKN015,0.00,5.00,VWS V14.01,2013-02-23 12:57:00,
2013-02-23 07:02:00,15.9,13.0,30.09,West,262,0.0,0.0,88,0.00,,BKN015,0.00,11.00,VWS V14.01,2013-02-23 13:02:00,
2013-02-23 07:07:00,15.7,12.8,30.08,West,260,0.0,0.0,88,0.00,,BKN015,0.00,14.00,VWS V14.01,2013-02-23 13:07:00,
2013-02-23 07:12:00,15.6,12.7,30.09,West,260,0.0,0.0,88,0.00,,CLR,0.00,18.00,VWS V14.01,2013-02-23 13:12:00,
2013-02-23 07:17:00,15.5,12.6,30.08,West,264,0.0,0.0,88,0.00,,CLR,0.00,23.00,VWS V14.01,2013-02-23 13:17:00,
2013-02-23 07:22:00,15.5,12.6,30.08,West,263,0.0,0.0,88,0.00,,CLR,0.00,26.00,VWS V14.01,2013-02-23 13:22:00,
2013-02-23 07:27:00,15.4,12.5,30.08,West,263,0.0,0.0,88,0.00,,CLR,0.00,37.00,VWS V14.01,2013-02-23 13:27:00,
2013-02-23 07:32:00,15.4,12.5,30.08,West,263,0.0,0.0,88,0.00,,SCT013,0.00,46.00,VWS V14.01,2013-02-23 13:32:00,
2013-02-23 07:37:00,15.4,12.5,30.08,West,263,0.0,0.0,88,0.00,,SCT013,0.00,49.00,VWS V14.01,2013-02-23 13:37:00,
2013-02-23 07:42:00,15.5,12.8,30.08,West,263,0.0,0.0,89,0.00,,SCT013,0.00,69.00,VWS V14.01,2013-02-23 13:42:00,
2013-02-23 07:47:00,15.6,12.9,30.08,West,266,0.0,0.0,89,0.00,,SCT013,0.00,98.00,VWS V14.01,2013-02-23 13:47:00,
2013-02-23 07:52:00,15.8,13.1,30.08,West,266,0.0,0.0,89,0.00,,CLR,0.00,107.00,VWS V14.01,2013-02-23 13:52:00,
2013-02-23 07:58:00,16.1,13.4,30.08,West,265,0.0,0.0,89,0.00,,CLR,0.00,139.00,VWS V14.01,2013-02-23 13:58:00,
2013-02-23 08:03:00,16.6,13.9,30.08,West,265,0.0,0.0,89,0.00,,CLR,0.00,144.00,VWS V14.01,2013-02-23 14:03:00,
2013-02-23 08:08:00,17.1,14.4,30.08,West,265,0.0,0.0,89,0.00,,CLR,0.00,171.00,VWS V14.01,2013-02-23 14:08:00,
2013-02-23 08:13:00,17.6,14.9,30.08,West,266,0.0,0.0,89,0.00,,CLR,0.00,195.00,VWS V14.01,2013-02-23 14:13:00,
2013-02-23 08:18:00,18.2,15.5,30.08,West,266,0.0,0.0,89,0.00,,CLR,0.00,207.00,VWS V14.01,2013-02-23 14:18:00,
2013-02-23 08:23:00,18.7,16.0,30.08,WSW,250,0.0,0.0,89,0.00,,CLR,0.00,209.00,VWS V14.01,2013-02-23 14:23:00,
2013-02-23 08:28:00,18.9,16.2,30.08,SW,236,5.0,6.0,89,0.00,,CLR,0.00,214.00,VWS V14.01,2013-02-23 14:28:00,
2013-02-23 08:33:00,18.9,15.9,30.08,WSW,238,6.0,7.0,88,0.00,,CLR,0.00,230.00,VWS V14.01,2013-02-23 14:33:00,
2013-02-23 08:38:00,19.1,16.1,30.08,SW,234,10.0,10.0,88,0.00,,CLR,0.00,229.00,VWS V14.01,2013-02-23 14:38:00,
2013-02-23 08:43:00,19.3,16.1,30.08,SW,220,7.0,11.0,87,0.00,,CLR,0.00,246.00,VWS V14.01,2013-02-23 14:43:00,
2013-02-23 08:48:00,19.3,16.1,30.08,SW,229,5.0,5.0,87,0.00,,CLR,0.00,279.00,VWS V14.01,2013-02-23 14:48:00,
2013-02-23 08:53:00,19.3,15.8,30.08,WSW,237,6.0,9.0,86,0.00,,CLR,0.00,294.00,VWS V14.01,2013-02-23 14:53:00,
2013-02-23 08:58:00,19.2,15.7,30.08,SW,224,6.0,11.0,86,0.00,,CLR,0.00,313.00,VWS V14.01,2013-02-23 14:58:00,
2013-02-23 09:03:00,19.3,15.8,30.09,WSW,239,7.0,10.0,86,0.00,,CLR,0.00,330.00,VWS V14.01,2013-02-23 15:03:00,
2013-02-23 09:08:00,19.6,16.1,30.08,WSW,242,6.0,7.0,86,0.00,,CLR,0.00,355.00,VWS V14.01,2013-02-23 15:08:00,
2013-02-23 09:13:00,20.0,16.5,30.08,WSW,248,3.0,5.0,86,0.00,,CLR,0.00,378.00,VWS V14.01,2013-02-23 15:13:00,
2013-02-23 09:18:00,20.5,17.0,30.08,WSW,257,5.0,5.0,86,0.00,,CLR,0.00,401.00,VWS V14.01,2013-02-23 15:18:00,
2013-02-23 09:23:00,21.0,17.5,30.08,West,262,6.0,6.0,86,0.00,,CLR,0.00,418.00,VWS V14.01,2013-02-23 15:23:00,
2013-02-23 09:28:00,21.4,17.6,30.08,West,259,5.0,7.0,85,0.00,,CLR,0.00,438.00,VWS V14.01,2013-02-23 15:28:00,
2013-02-23 09:33:00,21.8,18.0,30.08,West,268,4.0,9.0,85,0.00,,CLR,0.00,454.00,VWS V14.01,2013-02-23 15:33:00,
2013-02-23 09:38:00,22.2,18.4,30.08,WSW,250,5.0,8.0,85,0.00,,CLR,0.00,466.00,VWS V14.01,2013-02-23 15:38:00,
2013-02-23 09:43:00,22.6,18.8,30.08,WSW,253,6.0,7.0,85,0.00,,CLR,0.00,475.00,VWS V14.01,2013-02-23 15:43:00,
2013-02-23 09:48:00,22.9,18.8,30.08,WSW,243,11.0,11.0,84,0.00,,CLR,0.00,482.00,VWS V14.01,2013-02-23 15:48:00,
2013-02-23 09:53:00,23.0,18.6,30.08,WSW,249,9.0,11.0,83,0.00,,CLR,0.00,489.00,VWS V14.01,2013-02-23 15:53:00,
2013-02-23 09:58:00,23.2,18.8,30.08,WSW,249,5.0,7.0,83,0.00,,CLR,0.00,492.00,VWS V14.01,2013-02-23 15:58:00,
2013-02-23 10:03:00,23.5,19.1,30.08,WSW,247,6.0,9.0,83,0.00,,CLR,0.00,499.00,VWS V14.01,2013-02-23 16:03:00,
2013-02-23 10:08:00,24.0,19.6,30.08,WSW,241,4.0,7.0,83,0.00,,CLR,0.00,504.00,VWS V14.01,2013-02-23 16:08:00,
2013-02-23 10:13:00,24.5,20.1,30.08,WSW,254,4.0,7.0,83,0.00,,CLR,0.00,508.00,VWS V14.01,2013-02-23 16:13:00,
2013-02-23 10:18:00,24.8,20.1,30.08,WSW,247,6.0,9.0,82,0.00,,CLR,0.00,513.00,VWS V14.01,2013-02-23 16:18:00,
2013-02-23 10:23:00,25.0,20.3,30.08,WSW,251,7.0,7.0,82,0.00,,CLR,0.00,517.00,VWS V14.01,2013-02-23 16:23:00,
2013-02-23 10:29:00,25.3,20.6,30.08,WSW,240,9.0,9.0,82,0.00,,CLR,0.00,524.00,VWS V14.01,2013-02-23 16:29:00,
2013-02-23 10:34:00,25.7,21.0,30.08,West,277,7.0,9.0,82,0.00,,CLR,0.00,533.00,VWS V14.01,2013-02-23 16:34:00,
2013-02-23 10:39:00,25.9,21.2,30.08,West,269,3.0,6.0,82,0.00,,CLR,0.00,540.00,VWS V14.01,2013-02-23 16:39:00,
2013-02-23 10:44:00,26.0,21.3,30.08,West,268,4.0,9.0,82,0.00,,CLR,0.00,548.00,VWS V14.01,2013-02-23 16:44:00,
2013-02-23 10:49:00,26.1,21.6,30.08,WSW,257,5.0,6.0,83,0.00,,CLR,0.00,561.00,VWS V14.01,2013-02-23 16:49:00,
2013-02-23 10:54:00,26.2,21.5,30.07,WNW,295,5.0,10.0,82,0.00,,CLR,0.00,573.00,VWS V14.01,2013-02-23 16:54:00,
2013-02-23 10:59:00,26.3,21.3,30.07,West,260,5.0,7.0,81,0.00,,CLR,0.00,589.00,VWS V14.01,2013-02-23 16:59:00,
2013-02-23 11:04:00,26.6,21.6,30.07,WSW,253,8.0,11.0,81,0.00,,CLR,0.00,603.00,VWS V14.01,2013-02-23 17:04:00,
2013-02-23 11:09:00,26.9,21.9,30.07,WSW,255,5.0,9.0,81,0.00,,CLR,0.00,615.00,VWS V14.01,2013-02-23 17:09:00,
2013-02-23 11:14:00,27.1,21.8,30.07,WSW,253,7.0,10.0,80,0.00,,CLR,0.00,636.00,VWS V14.01,2013-02-23 17:14:00,
2013-02-23 11:19:00,27.2,21.9,30.07,WSW,252,3.0,9.0,80,0.00,,CLR,0.00,654.00,VWS V14.01,2013-02-23 17:19:00,
2013-02-23 11:24:00,27.4,22.0,30.07,WSW,246,5.0,9.0,80,0.00,,CLR,0.00,670.00,VWS V14.01,2013-02-23 17:24:00,
2013-02-23 11:29:00,27.7,22.4,30.07,WSW,239,11.0,11.0,80,0.00,,CLR,0.00,671.00,VWS V14.01,2013-02-23 17:29:00,
2013-02-23 11:34:00,27.8,22.1,30.07,West,259,9.0,12.0,79,0.00,,CLR,0.00,668.00,VWS V14.01,2013-02-23 17:34:00,
2013-02-23 11:39:00,27.9,22.2,30.07,WSW,258,9.0,11.0,79,0.00,,CLR,0.00,659.00,VWS V14.01,2013-02-23 17:39:00,
2013-02-23 11:44:00,28.1,22.4,30.06,WSW,247,9.0,11.0,79,0.00,,CLR,0.00,645.00,VWS V14.01,2013-02-23 17:44:00,
2013-02-23 11:49:00,28.4,22.7,30.07,WSW,242,9.0,10.0,79,0.00,,CLR,0.00,626.00,VWS V14.01,2013-02-23 17:49:00,
2013-02-23 11:54:00,28.7,22.7,30.06,West,259,5.0,10.0,78,0.00,,CLR,0.00,612.00,VWS V14.01,2013-02-23 17:54:00,
2013-02-23 11:59:00,29.0,23.0,30.07,WSW,251,7.0,11.0,78,0.00,,CLR,0.00,599.00,VWS V14.01,2013-02-23 17:59:00,
2013-02-23 12:04:00,29.0,22.7,30.07,WSW,250,0.0,9.0,77,0.00,,CLR,0.00,599.00,VWS V14.01,2013-02-23 18:04:00,
2013-02-23 12:09:00,29.3,23.3,30.06,SW,234,12.0,12.0,78,0.00,,CLR,0.00,601.00,VWS V14.01,2013-02-23 18:09:00,
2013-02-23 12:14:00,29.4,23.1,30.06,SW,232,10.0,12.0,77,0.00,,CLR,0.00,610.00,VWS V14.01,2013-02-23 18:14:00,
2013-02-23 12:19:00,29.2,22.9,30.06,WSW,257,6.0,9.0,77,0.00,,CLR,0.00,624.00,VWS V14.01,2013-02-23 18:19:00,
2013-02-23 12:24:00,29.4,22.8,30.06,WSW,243,5.0,9.0,76,0.01,,CLR,0.01,642.00,VWS V14.01,2013-02-23 18:24:00,
2013-02-23 12:29:00,29.8,23.8,30.06,WSW,253,0.0,9.0,78,0.01,,CLR,0.01,643.00,VWS V14.01,2013-02-23 18:29:00,
2013-02-23 12:34:00,30.4,24.1,30.05,WSW,244,6.0,9.0,77,0.01,,CLR,0.01,638.00,VWS V14.01,2013-02-23 18:34:00,
2013-02-23 12:39:00,30.5,23.5,30.05,WSW,252,6.0,10.0,75,0.01,,CLR,0.01,622.00,VWS V14.01,2013-02-23 18:39:00,
2013-02-23 12:44:00,30.2,22.9,30.05,WSW,238,2.0,7.0,74,0.01,,CLR,0.01,582.00,VWS V14.01,2013-02-23 18:44:00,
2013-02-23 12:49:00,30.6,23.6,30.05,SW,226,11.0,11.0,75,0.01,,CLR,0.01,517.00,VWS V14.01,2013-02-23 18:49:00,
2013-02-23 12:55:00,30.3,23.0,30.05,WSW,241,3.0,9.0,74,0.01,,CLR,0.01,454.00,VWS V14.01,2013-02-23 18:55:00,
2013-02-23 13:00:00,30.7,23.7,30.05,WSW,251,3.0,9.0,75,0.01,,CLR,0.01,434.00,VWS V14.01,2013-02-23 19:00:00,
2013-02-23 13:05:00,31.1,24.8,30.05,West,262,0.0,0.0,77,0.01,,CLR,0.01,459.00,VWS V14.01,2013-02-23 19:05:00,
2013-02-23 13:10:00,31.4,25.0,30.05,SW,227,4.0,7.0,77,0.01,,CLR,0.01,531.00,VWS V14.01,2013-02-23 19:10:00,
2013-02-23 13:15:00,31.3,24.0,30.05,WSW,247,6.0,12.0,74,0.01,,CLR,0.01,591.00,VWS V14.01,2013-02-23 19:15:00,
2013-02-23 13:20:00,31.1,24.1,30.05,WSW,247,4.0,7.0,75,0.01,,CLR,0.01,671.00,VWS V14.01,2013-02-23 19:20:00,
2013-02-23 13:25:00,31.3,24.0,30.05,WSW,239,5.0,10.0,74,0.01,,CLR,0.01,689.00,VWS V14.01,2013-02-23 19:25:00,
2013-02-23 13:30:00,31.4,24.1,30.04,WSW,247,3.0,8.0,74,0.00,,CLR,0.01,687.00,VWS V14.01,2013-02-23 19:30:00,
2013-02-23 13:35:00,31.5,23.9,30.04,SW,228,7.0,8.0,73,0.00,,CLR,0.01,682.00,VWS V14.01,2013-02-23 19:35:00,
2013-02-23 13:40:00,31.6,24.0,30.04,SW,228,9.0,11.0,73,0.00,,CLR,0.01,677.00,VWS V14.01,2013-02-23 19:40:00,
2013-02-23 13:45:00,31.6,24.3,30.04,WSW,257,4.0,11.0,74,0.00,,CLR,0.01,671.00,VWS V14.01,2013-02-23 19:45:00,
2013-02-23 13:50:00,31.5,24.2,30.04,WSW,254,4.0,11.0,74,0.00,,CLR,0.01,666.00,VWS V14.01,2013-02-23 19:50:00,
2013-02-23 13:55:00,31.6,24.6,30.04,WSW,243,3.0,10.0,75,0.00,,CLR,0.01,659.00,VWS V14.01,2013-02-23 19:55:00,
2013-02-23 14:00:00,31.8,24.1,30.04,WSW,257,7.0,14.0,73,0.00,,CLR,0.01,654.00,VWS V14.01,2013-02-23 20:00:00,
2013-02-23 14:05:00,31.7,23.7,30.04,WSW,251,5.0,12.0,72,0.01,,CLR,0.02,647.00,VWS V14.01,2013-02-23 20:05:00,
2013-02-23 14:10:00,31.7,24.0,30.03,WSW,249,0.0,10.0,73,0.01,,CLR,0.02,636.00,VWS V14.01,2013-02-23 20:10:00,
2013-02-23 14:15:00,31.9,24.6,30.03,WSW,245,4.0,12.0,74,0.01,,CLR,0.02,629.00,VWS V14.01,2013-02-23 20:15:00,
2013-02-23 14:20:00,32.3,25.0,30.03,WSW,251,7.0,10.0,74,0.01,,CLR,0.02,622.00,VWS V14.01,2013-02-23 20:20:00,
2013-02-23 14:25:00,32.4,25.4,30.03,WSW,257,9.0,10.0,75,0.01,,CLR,0.02,613.00,VWS V14.01,2013-02-23 20:25:00,
2013-02-23 14:30:00,32.5,25.1,30.03,West,276,0.0,10.0,74,0.01,,CLR,0.02,603.00,VWS V14.01,2013-02-23 20:30:00,
2013-02-23 14:35:00,32.5,25.5,30.03,WSW,253,0.0,4.0,75,0.01,,CLR,0.02,594.00,VWS V14.01,2013-02-23 20:35:00,
2013-02-23 14:40:00,32.8,25.1,30.03,SW,221,5.0,10.0,73,0.01,,CLR,0.02,584.00,VWS V14.01,2013-02-23 20:40:00,
2013-02-23 14:45:00,32.8,24.8,30.03,SW,222,0.0,12.0,72,0.01,,CLR,0.02,571.00,VWS V14.01,2013-02-23 20:45:00,
2013-02-23 14:50:00,32.8,24.8,30.03,WSW,248,0.0,4.0,72,0.01,,CLR,0.02,559.00,VWS V14.01,2013-02-23 20:50:00,
2013-02-23 14:55:00,33.1,25.4,30.03,West,262,1.0,7.0,73,0.01,,CLR,0.02,545.00,VWS V14.01,2013-02-23 20:55:00,
2013-02-23 15:00:00,33.2,25.5,30.03,SW,218,0.0,6.0,73,0.01,,CLR,0.02,526.00,VWS V14.01,2013-02-23 21:00:00,
2013-02-23 15:05:00,33.2,25.2,30.03,WSW,254,4.0,12.0,72,0.01,,CLR,0.02,513.00,VWS V14.01,2013-02-23 21:05:00,
2013-02-23 15:10:00,33.1,25.1,30.03,WSW,255,9.0,11.0,72,0.00,,CLR,0.02,497.00,VWS V14.01,2013-02-23 21:10:00,
2013-02-23 15:15:00,32.9,25.2,30.03,WSW,251,5.0,9.0,73,0.00,,CLR,0.02,482.00,VWS V14.01,2013-02-23 21:15:00,
2013-02-23 15:20:00,32.6,24.9,30.03,WSW,257,5.0,11.0,73,0.00,,CLR,0.02,462.00,VWS V14.01,2013-02-23 21:20:00,
2013-02-23 15:25:00,32.6,25.2,30.03,West,268,0.0,5.0,74,0.00,,CLR,0.02,446.00,VWS V14.01,2013-02-23 21:25:00,
2013-02-23 15:30:00,32.8,24.8,30.03,WSW,256,4.0,9.0,72,0.00,,CLR,0.02,431.00,VWS V14.01,2013-02-23 21:30:00,
2013-02-23 15:35:00,32.8,25.1,30.03,WSW,256,5.0,10.0,73,0.00,,CLR,0.02,396.00,VWS V14.01,2013-02-23 21:35:00,
2013-02-23 15:40:00,32.8,25.4,30.03,WSW,252,6.0,6.0,74,0.00,,CLR,0.02,396.00,VWS V14.01,2013-02-23 21:40:00,
2013-02-23 15:45:00,32.8,25.1,30.03,SW,234,4.0,12.0,73,0.00,,CLR,0.02,387.00,VWS V14.01,2013-02-23 21:45:00,
2013-02-23 15:50:00,32.6,24.6,30.03,WSW,257,0.0,11.0,72,0.00,,CLR,0.02,371.00,VWS V14.01,2013-02-23 21:50:00,
2013-02-23 15:55:00,32.6,24.9,30.03,SW,224,10.0,13.0,73,0.00,,CLR,0.02,355.00,VWS V14.01,2013-02-23 21:55:00,
2013-02-23 16:00:00,32.8,25.1,30.03,WSW,244,4.0,6.0,73,0.00,,CLR,0.02,339.00,VWS V14.01,2013-02-23 22:00:00,
2013-02-23 16:05:00,32.8,24.8,30.03,WSW,252,0.0,10.0,72,0.00,,CLR,0.02,318.00,VWS V14.01,2013-02-23 22:05:00,
2013-02-23 16:10:00,33.0,25.6,30.03,West,261,0.0,0.0,74,0.00,,CLR,0.02,306.00,VWS V14.01,2013-02-23 22:10:00,
2013-02-23 16:15:00,33.0,25.3,30.03,WSW,252,0.0,0.0,73,0.00,,CLR,0.02,283.00,VWS V14.01,2013-02-23 22:15:00,
2013-02-23 16:20:00,33.0,25.0,30.03,West,268,1.0,10.0,72,0.00,,CLR,0.02,267.00,VWS V14.01,2013-02-23 22:20:00,
2013-02-23 16:25:00,32.8,24.8,30.03,WSW,243,0.0,6.0,72,0.00,,CLR,0.02,250.00,VWS V14.01,2013-02-23 22:25:00,
2013-02-23 16:31:00,32.6,24.6,30.03,SW,236,8.0,10.0,72,0.00,,CLR,0.02,229.00,VWS V14.01,2013-02-23 22:31:00,
2013-02-23 16:36:00,32.4,25.0,30.02,WSW,258,0.0,6.0,74,0.00,,CLR,0.02,211.00,VWS V14.01,2013-02-23 22:36:00,
2013-02-23 16:41:00,32.4,24.4,30.02,SW,236,5.0,7.0,72,0.00,,CLR,0.02,192.00,VWS V14.01,2013-02-23 22:41:00,
2013-02-23 16:45:00,32.3,24.6,30.02,SW,220,0.0,0.0,73,0.00,,CLR,0.02,171.00,VWS V14.01,2013-02-23 22:45:00,
2013-02-23 16:51:00,32.3,24.6,30.02,WSW,249,0.0,6.0,73,0.00,,CLR,0.02,149.00,VWS V14.01,2013-02-23 22:51:00,
2013-02-23 16:56:00,32.2,24.5,30.02,SW,222,0.0,5.0,73,0.00,,CLR,0.02,130.00,VWS V14.01,2013-02-23 22:56:00,
2013-02-23 17:01:00,31.9,23.9,30.02,SW,226,5.0,7.0,72,0.00,,CLR,0.02,114.00,VWS V14.01,2013-02-23 23:01:00,
2013-02-23 17:06:00,31.7,24.0,30.02,WSW,245,5.0,7.0,73,0.00,,CLR,0.02,93.00,VWS V14.01,2013-02-23 23:06:00,
2013-02-23 17:11:00,31.6,24.0,30.02,WSW,248,0.0,5.0,73,0.00,,CLR,0.02,76.00,VWS V14.01,2013-02-23 23:11:00,
2013-02-23 17:16:00,31.5,23.9,30.02,WSW,248,0.0,0.0,73,0.00,,CLR,0.02,60.00,VWS V14.01,2013-02-23 23:16:00,
2013-02-23 17:21:00,31.2,23.6,30.02,SW,232,0.0,6.0,73,0.00,,CLR,0.02,46.00,VWS V14.01,2013-02-23 23:21:00,
2013-02-23 17:26:00,31.0,23.4,30.02,WSW,239,0.0,0.0,73,0.00,,CLR,0.02,33.00,VWS V14.01,2013-02-23 23:26:00,
2013-02-23 17:31:00,30.7,23.1,30.02,WSW,239,0.0,0.0,73,0.00,,CLR,0.02,25.00,VWS V14.01,2013-02-23 23:31:00,
2013-02-23 17:36:00,30.4,23.1,30.02,SW,219,0.0,0.0,74,0.00,,CLR,0.02,19.00,VWS V14.01,2013-02-23 23:36:00,
2013-02-23 17:41:00,30.0,22.7,30.02,SW,227,0.0,0.0,74,0.00,,CLR,0.02,16.00,VWS V14.01,2013-02-23 23:41:00,
2013-02-23 17:46:00,29.7,22.8,30.02,SW,226,0.0,0.0,75,0.00,,CLR,0.02,12.00,VWS V14.01,2013-02-23 23:46:00,
2013-02-23 17:51:00,29.3,22.4,30.02,South,185,0.0,0.0,75,0.00,,CLR,0.02,9.00,VWS V14.01,2013-02-23 23:51:00,
2013-02-23 17:56:00,28.9,22.3,30.02,South,185,0.0,0.0,76,0.00,,CLR,0.02,5.00,VWS V14.01,2013-02-23 23:56:00,
2013-02-23 18:01:00,28.3,21.7,30.03,South,185,0.0,0.0,76,0.00,,CLR,0.02,0.00,VWS V14.01,2013-02-24 00:01:00,
2013-02-23 18:06:00,28.0,21.7,30.02,South,185,0.0,0.0,77,0.00,,CLR,0.02,0.00,VWS V14.01,2013-02-24 00:06:00,
2013-02-23 18:11:00,27.6,21.4,30.02,South,185,0.0,0.0,77,0.00,,CLR,0.02,0.00,VWS V14.01,2013-02-24 00:11:00,
2013-02-23 18:16:00,27.0,20.8,30.03,SSW,197,0.0,0.0,77,0.00,,CLR,0.02,0.00,VWS V14.01,2013-02-24 00:16:00,
2013-02-23 18:21:00,26.5,20.3,30.03,SSW,203,5.0,5.0,77,0.00,,CLR,0.02,0.00,VWS V14.01,2013-02-24 00:21:00,
2013-02-23 18:26:00,26.2,20.3,30.03,SSW,202,4.0,5.0,78,0.00,,CLR,0.02,0.00,VWS V14.01,2013-02-24 00:26:00,
2013-02-23 18:31:00,25.9,20.0,30.03,SSW,196,0.0,6.0,78,0.00,,CLR,0.02,0.00,VWS V14.01,2013-02-24 00:31:00,
2013-02-23 18:36:00,25.7,20.1,30.03,SSW,194,0.0,0.0,79,0.00,,CLR,0.02,0.00,VWS V14.01,2013-02-24 00:36:00,
2013-02-23 18:41:00,25.4,19.8,30.03,SSW,194,0.0,0.0,79,0.00,,CLR,0.02,0.00,VWS V14.01,2013-02-24 00:41:00,
2013-02-23 18:46:00,25.3,20.0,30.03,SSW,194,0.0,0.0,80,0.00,,CLR,0.02,0.00,VWS V14.01,2013-02-24 00:46:00,
2013-02-23 18:51:00,25.1,19.8,30.03,South,179,0.0,0.0,80,0.00,,CLR,0.02,0.00,VWS V14.01,2013-02-24 00:51:00,
2013-02-23 18:56:00,24.9,19.6,30.03,South,176,0.0,0.0,80,0.00,,CLR,0.02,0.00,VWS V14.01,2013-02-24 00:56:00,
2013-02-23 19:01:00,24.8,19.5,30.03,South,184,0.0,0.0,80,0.00,,CLR,0.02,0.00,VWS V14.01,2013-02-24 01:01:00,
2013-02-23 19:06:00,24.8,19.5,30.03,South,179,0.0,0.0,80,0.00,,CLR,0.02,0.00,VWS V14.01,2013-02-24 01:06:00,
2013-02-23 19:11:00,24.7,19.4,30.03,South,181,0.0,0.0,80,0.00,,CLR,0.02,0.00,VWS V14.01,2013-02-24 01:11:00,
2013-02-23 19:16:00,24.6,19.3,30.03,South,182,0.0,0.0,80,0.00,,CLR,0.02,0.00,VWS V14.01,2013-02-24 01:16:00,
2013-02-23 19:21:00,24.6,19.6,30.03,South,185,0.0,0.0,81,0.00,,CLR,0.02,0.00,VWS V14.01,2013-02-24 01:21:00,
2013-02-23 19:26:00,24.8,19.5,30.03,South,191,0.0,0.0,80,0.00,,CLR,0.02,0.00,VWS V14.01,2013-02-24 01:26:00,
2013-02-23 19:31:00,24.8,19.5,30.03,SSW,193,0.0,0.0,80,0.00,,CLR,0.02,0.00,VWS V14.01,2013-02-24 01:31:00,
2013-02-23 19:36:00,24.8,19.5,30.03,South,191,0.0,0.0,80,0.00,,CLR,0.02,0.00,VWS V14.01,2013-02-24 01:36:00,
2013-02-23 19:41:00,24.8,19.5,30.03,South,191,0.0,0.0,80,0.00,,CLR,0.02,0.00,VWS V14.01,2013-02-24 01:41:00,
2013-02-23 19:46:00,24.3,18.7,30.03,South,183,0.0,0.0,79,0.00,,CLR,0.02,0.00,VWS V14.01,2013-02-24 01:46:00,
2013-02-23 19:51:00,24.0,18.7,30.03,South,189,0.0,0.0,80,0.00,,CLR,0.02,0.00,VWS V14.01,2013-02-24 01:51:00,
2013-02-23 19:56:00,23.9,18.6,30.03,South,189,0.0,0.0,80,0.00,,CLR,0.02,0.00,VWS V14.01,2013-02-24 01:56:00,
2013-02-23 20:01:00,23.6,18.4,30.03,South,189,0.0,0.0,80,0.00,,CLR,0.02,0.00,VWS V14.01,2013-02-24 02:01:00,
2013-02-23 20:06:00,23.4,18.4,30.03,South,189,0.0,0.0,81,0.00,,CLR,0.02,0.00,VWS V14.01,2013-02-24 02:06:00,
2013-02-23 20:11:00,23.4,18.7,30.03,South,189,0.0,0.0,82,0.00,,CLR,0.02,0.00,VWS V14.01,2013-02-24 02:11:00,
2013-02-23 20:16:00,23.4,19.0,30.04,South,189,0.0,0.0,83,0.00,,CLR,0.02,0.00,VWS V14.01,2013-02-24 02:16:00,
2013-02-23 20:21:00,23.4,19.0,30.03,South,189,0.0,0.0,83,0.00,,CLR,0.02,0.00,VWS V14.01,2013-02-24 02:21:00,
2013-02-23 20:27:00,23.3,18.9,30.04,South,189,0.0,0.0,83,0.00,,CLR,0.02,0.00,VWS V14.01,2013-02-24 02:27:00,
2013-02-23 20:32:00,23.1,18.7,30.04,South,189,0.0,0.0,83,0.00,,CLR,0.02,0.00,VWS V14.01,2013-02-24 02:32:00,
2013-02-23 20:37:00,22.8,18.1,30.04,South,189,0.0,0.0,82,0.00,,CLR,0.02,0.00,VWS V14.01,2013-02-24 02:37:00,
2013-02-23 20:42:00,22.6,18.2,30.04,South,187,0.0,0.0,83,0.00,,CLR,0.02,0.00,VWS V14.01,2013-02-24 02:42:00,
2013-02-23 20:47:00,22.5,18.1,30.04,South,187,0.0,0.0,83,0.00,,CLR,0.02,0.00,VWS V14.01,2013-02-24 02:47:00,
2013-02-23 20:52:00,22.5,18.4,30.04,South,187,0.0,0.0,84,0.00,,CLR,0.02,0.00,VWS V14.01,2013-02-24 02:52:00,
2013-02-23 20:57:00,22.5,18.4,30.04,South,187,0.0,0.0,84,0.00,,CLR,0.02,0.00,VWS V14.01,2013-02-24 02:57:00,
2013-02-23 21:02:00,22.4,18.3,30.04,South,187,0.0,0.0,84,0.00,,CLR,0.02,0.00,VWS V14.01,2013-02-24 03:02:00,
2013-02-23 21:07:00,22.3,18.5,30.04,South,188,0.0,0.0,85,0.00,,CLR,0.02,0.00,VWS V14.01,2013-02-24 03:07:00,
2013-02-23 21:12:00,21.9,17.8,30.04,South,188,0.0,0.0,84,0.00,,CLR,0.02,0.00,VWS V14.01,2013-02-24 03:12:00,
2013-02-23 21:17:00,21.8,17.7,30.04,South,188,0.0,0.0,84,0.00,,CLR,0.02,0.00,VWS V14.01,2013-02-24 03:17:00,
2013-02-23 21:22:00,21.7,17.9,30.04,South,188,0.0,0.0,85,0.00,,CLR,0.02,0.00,VWS V14.01,2013-02-24 03:22:00,
2013-02-23 21:27:00,21.6,17.8,30.04,South,188,0.0,0.0,85,0.00,,CLR,0.02,0.00,VWS V14.01,2013-02-24 03:27:00,
2013-02-23 21:32:00,21.6,17.8,30.05,South,190,0.0,0.0,85,0.00,,CLR,0.02,0.00,VWS V14.01,2013-02-24 03:32:00,
2013-02-23 21:37:00,21.4,17.6,30.05,South,190,0.0,0.0,85,0.00,,CLR,0.02,0.00,VWS V14.01,2013-02-24 03:37:00,
2013-02-23 21:42:00,21.3,17.5,30.05,South,189,0.0,0.0,85,0.00,,CLR,0.02,0.00,VWS V14.01,2013-02-24 03:42:00,
2013-02-23 21:47:00,21.1,17.3,30.06,South,189,0.0,0.0,85,0.00,,CLR,0.02,0.00,VWS V14.01,2013-02-24 03:47:00,
2013-02-23 21:52:00,20.7,16.9,30.06,SSW,195,0.0,0.0,85,0.00,,CLR,0.02,0.00,VWS V14.01,2013-02-24 03:52:00,
2013-02-23 21:57:00,20.3,16.5,30.06,SSW,196,0.0,0.0,85,0.00,,CLR,0.02,0.00,VWS V14.01,2013-02-24 03:57:00,
2013-02-23 22:02:00,19.9,15.9,30.06,SSW,195,0.0,0.0,84,0.00,,CLR,0.02,0.00,VWS V14.01,2013-02-24 04:02:00,
2013-02-23 22:07:00,19.7,15.9,30.06,SSW,195,0.0,0.0,85,0.00,,CLR,0.02,0.00,VWS V14.01,2013-02-24 04:07:00,
2013-02-23 22:12:00,19.7,15.9,30.06,SSW,195,0.0,0.0,85,0.00,,CLR,0.02,0.00,VWS V14.01,2013-02-24 04:12:00,
2013-02-23 22:17:00,19.7,15.9,30.06,SSW,195,0.0,0.0,85,0.00,,CLR,0.02,0.00,VWS V14.01,2013-02-24 04:17:00,
2013-02-23 22:22:00,19.8,16.3,30.06,SSW,195,0.0,0.0,86,0.00,,CLR,0.02,0.00,VWS V14.01,2013-02-24 04:22:00,
2013-02-23 22:27:00,19.9,16.4,30.07,SSW,195,0.0,0.0,86,0.00,,CLR,0.02,0.00,VWS V14.01,2013-02-24 04:27:00,
2013-02-23 22:32:00,19.9,16.4,30.06,SSW,195,0.0,0.0,86,0.00,,CLR,0.02,0.00,VWS V14.01,2013-02-24 04:32:00,
2013-02-23 22:37:00,20.0,16.5,30.07,SSW,195,0.0,0.0,86,0.00,,CLR,0.02,0.00,VWS V14.01,2013-02-24 04:37:00,
2013-02-23 22:42:00,20.0,16.5,30.07,SSW,195,0.0,0.0,86,0.00,,CLR,0.02,0.00,VWS V14.01,2013-02-24 04:42:00,
2013-02-23 22:47:00,20.0,16.8,30.07,SSW,195,0.0,0.0,87,0.00,,CLR,0.02,0.00,VWS V14.01,2013-02-24 04:47:00,
2013-02-23 22:52:00,20.0,16.8,30.07,SSW,195,0.0,0.0,87,0.00,,CLR,0.02,0.00,VWS V14.01,2013-02-24 04:52:00,
2013-02-23 22:57:00,20.2,17.0,30.06,SSW,195,0.0,0.0,87,0.00,,CLR,0.02,0.00,VWS V14.01,2013-02-24 04:57:00,
2013-02-23 23:00:00,20.3,17.1,30.06,SSW,195,0.0,0.0,87,0.00,,CLR,0.02,0.00,VWS V14.01,2013-02-24 05:00:00,
2013-02-23 23:05:00,20.3,17.1,30.06,South,189,0.0,0.0,87,0.00,,CLR,0.02,0.00,VWS V14.01,2013-02-24 05:05:00,
2013-02-23 23:11:00,20.3,17.1,30.06,South,189,0.0,0.0,87,0.00,,CLR,0.02,0.00,VWS V14.01,2013-02-24 05:11:00,
2013-02-23 23:16:00,20.2,17.0,30.06,South,189,0.0,0.0,87,0.00,,CLR,0.02,0.00,VWS V14.01,2013-02-24 05:16:00,
2013-02-23 23:21:00,20.2,17.0,30.06,South,189,0.0,0.0,87,0.00,,CLR,0.02,0.00,VWS V14.01,2013-02-24 05:21:00,
2013-02-23 23:25:00,20.1,16.9,30.06,South,189,0.0,0.0,87,0.00,,CLR,0.02,0.00,VWS V14.01,2013-02-24 05:25:00,
2013-02-23 23:30:00,19.9,16.7,30.06,South,189,0.0,0.0,87,0.00,,CLR,0.02,0.00,VWS V14.01,2013-02-24 05:30:00,
2013-02-23 23:35:00,19.7,16.5,30.06,South,189,0.0,0.0,87,0.00,,CLR,0.02,0.00,VWS V14.01,2013-02-24 05:35:00,
2013-02-23 23:40:00,19.7,16.5,30.06,South,189,0.0,0.0,87,0.00,,CLR,0.02,0.00,VWS V14.01,2013-02-24 05:40:00,
2013-02-23 23:46:00,19.7,16.5,30.06,South,189,0.0,0.0,87,0.00,,CLR,0.02,0.00,VWS V14.01,2013-02-24 05:46:00,
2013-02-23 23:51:00,19.5,16.3,30.06,South,189,0.0,0.0,87,0.00,,CLR,0.02,0.00,VWS V14.01,2013-02-24 05:51:00,
2013-02-23 23:55:00,19.4,16.2,30.06,South,189,0.0,0.0,87,0.00,,CLR,0.02,0.00,VWS V14.01,2013-02-24 05:55:00,